sensor_id;sensor_type;location;lat;lon;timestamp;temperature;humidity
25951;DHT22;13748;52.240;6.002;2022-10-31T00:01:01;14.40;99.90
25951;DHT22;13748;52.240;6.002;2022-10-31T00:03:27;13.80;99.90
25951;DHT22;13748;52.240;6.002;2022-10-31T00:05:54;13.80;99.90
25951;DHT22;13748;52.240;6.002;2022-10-31T00:08:21;14.00;99.90
25951;DHT22;13748;52.240;6.002;2022-10-31T00:10:48;13.90;99.90
25951;DHT22;13748;52.240;6.002;2022-10-31T00:13:15;13.80;99.90
25951;DHT22;13748;52.240;6.002;2022-10-31T00:15:42;13.70;99.90
25951;DHT22;13748;52.240;6.002;2022-10-31T00:18:10;13.60;99.90
25951;DHT22;13748;52.240;6.002;2022-10-31T00:20:37;13.60;99.90
25951;DHT22;13748;52.240;6.002;2022-10-31T00:23:05;13.50;99.90
25951;DHT22;13748;52.240;6.002;2022-10-31T00:25:37;13.50;99.90
25951;DHT22;13748;52.240;6.002;2022-10-31T00:28:06;13.70;99.90
25951;DHT22;13748;52.240;6.002;2022-10-31T00:30:33;13.50;99.90
25951;DHT22;13748;52.240;6.002;2022-10-31T00:33:00;13.40;99.90
25951;DHT22;13748;52.240;6.002;2022-10-31T00:35:31;13.70;99.90
25951;DHT22;13748;52.240;6.002;2022-10-31T00:37:58;13.60;99.90
25951;DHT22;13748;52.240;6.002;2022-10-31T00:40:25;13.50;99.90
25951;DHT22;13748;52.240;6.002;2022-10-31T00:42:52;13.60;99.90
25951;DHT22;13748;52.240;6.002;2022-10-31T00:45:19;13.60;99.90
25951;DHT22;13748;52.240;6.002;2022-10-31T00:47:46;13.60;99.90
25951;DHT22;13748;52.240;6.002;2022-10-31T00:50:12;13.60;99.90
25951;DHT22;13748;52.240;6.002;2022-10-31T00:52:39;13.60;99.90
25951;DHT22;13748;52.240;6.002;2022-10-31T00:55:06;13.60;99.90
25951;DHT22;13748;52.240;6.002;2022-10-31T00:57:33;13.70;99.90
25951;DHT22;13748;52.240;6.002;2022-10-31T01:00:00;13.70;99.90
25951;DHT22;13748;52.240;6.002;2022-10-31T01:02:26;13.60;99.90
25951;DHT22;13748;52.240;6.002;2022-10-31T01:04:53;13.80;99.90
25951;DHT22;13748;52.240;6.002;2022-10-31T01:07:20;13.60;99.90
25951;DHT22;13748;52.240;6.002;2022-10-31T01:09:47;13.70;99.90
25951;DHT22;13748;52.240;6.002;2022-10-31T01:12:14;13.70;99.90
25951;DHT22;13748;52.240;6.002;2022-10-31T01:14:44;13.60;99.90
25951;DHT22;13748;52.240;6.002;2022-10-31T01:17:12;13.50;99.90
25951;DHT22;13748;52.240;6.002;2022-10-31T01:19:39;13.90;99.90
25951;DHT22;13748;52.240;6.002;2022-10-31T01:22:06;13.60;99.90
25951;DHT22;13748;52.240;6.002;2022-10-31T01:24:33;13.50;99.90
25951;DHT22;13748;52.240;6.002;2022-10-31T01:27:00;13.50;99.90
25951;DHT22;13748;52.240;6.002;2022-10-31T01:29:27;13.50;99.90
25951;DHT22;13748;52.240;6.002;2022-10-31T01:31:53;13.50;99.90
25951;DHT22;13748;52.240;6.002;2022-10-31T01:34:20;13.50;99.90
25951;DHT22;13748;52.240;6.002;2022-10-31T01:36:47;13.50;99.90
25951;DHT22;13748;52.240;6.002;2022-10-31T01:39:18;13.70;99.90
25951;DHT22;13748;52.240;6.002;2022-10-31T01:41:48;13.60;99.90
25951;DHT22;13748;52.240;6.002;2022-10-31T01:46:55;13.50;99.90
25951;DHT22;13748;52.240;6.002;2022-10-31T01:54:39;13.40;99.90
25951;DHT22;13748;52.240;6.002;2022-10-31T01:57:08;13.30;99.90
25951;DHT22;13748;52.240;6.002;2022-10-31T01:59:40;13.50;99.90
25951;DHT22;13748;52.240;6.002;2022-10-31T02:02:09;13.20;99.90
25951;DHT22;13748;52.240;6.002;2022-10-31T02:04:37;13.00;99.90
25951;DHT22;13748;52.240;6.002;2022-10-31T02:07:13;13.50;99.90
25951;DHT22;13748;52.240;6.002;2022-10-31T02:09:45;12.80;99.90
25951;DHT22;13748;52.240;6.002;2022-10-31T02:12:12;12.80;99.90
25951;DHT22;13748;52.240;6.002;2022-10-31T02:14:40;12.70;99.90
25951;DHT22;13748;52.240;6.002;2022-10-31T02:17:08;12.60;99.90
25951;DHT22;13748;52.240;6.002;2022-10-31T02:22:15;12.60;99.90
25951;DHT22;13748;52.240;6.002;2022-10-31T02:24:58;12.50;99.90
25951;DHT22;13748;52.240;6.002;2022-10-31T02:27:41;12.60;99.90
25951;DHT22;13748;52.240;6.002;2022-10-31T02:30:41;12.60;99.90
25951;DHT22;13748;52.240;6.002;2022-10-31T02:36:26;12.30;99.90
25951;DHT22;13748;52.240;6.002;2022-10-31T02:38:58;12.30;99.90
25951;DHT22;13748;52.240;6.002;2022-10-31T02:41:46;12.20;99.90
25951;DHT22;13748;52.240;6.002;2022-10-31T02:47:02;12.10;99.90
25951;DHT22;13748;52.240;6.002;2022-10-31T02:52:24;12.10;99.90
25951;DHT22;13748;52.240;6.002;2022-10-31T02:54:51;12.00;99.90
25951;DHT22;13748;52.240;6.002;2022-10-31T02:57:29;11.90;99.90
25951;DHT22;13748;52.240;6.002;2022-10-31T03:00:08;11.90;99.90
25951;DHT22;13748;52.240;6.002;2022-10-31T03:15:58;11.70;99.90
25951;DHT22;13748;52.240;6.002;2022-10-31T03:18:27;11.70;99.90
25951;DHT22;13748;52.240;6.002;2022-10-31T03:23:35;11.60;99.90
25951;DHT22;13748;52.240;6.002;2022-10-31T03:26:05;11.60;99.90
25951;DHT22;13748;52.240;6.002;2022-10-31T03:28:53;11.50;99.90
25951;DHT22;13748;52.240;6.002;2022-10-31T03:31:24;11.60;99.90
25951;DHT22;13748;52.240;6.002;2022-10-31T03:33:55;11.40;99.90
25951;DHT22;13748;52.240;6.002;2022-10-31T03:36:22;11.40;99.90
25951;DHT22;13748;52.240;6.002;2022-10-31T03:38:50;11.40;99.90
25951;DHT22;13748;52.240;6.002;2022-10-31T03:41:24;11.30;99.90
25951;DHT22;13748;52.240;6.002;2022-10-31T03:43:57;11.30;99.90
25951;DHT22;13748;52.240;6.002;2022-10-31T03:46:25;11.20;99.90
25951;DHT22;13748;52.240;6.002;2022-10-31T03:48:52;11.50;99.90
25951;DHT22;13748;52.240;6.002;2022-10-31T03:51:25;11.30;99.90
25951;DHT22;13748;52.240;6.002;2022-10-31T03:53:57;11.30;99.90
25951;DHT22;13748;52.240;6.002;2022-10-31T03:56:39;11.20;99.90
25951;DHT22;13748;52.240;6.002;2022-10-31T03:59:16;11.30;99.90
25951;DHT22;13748;52.240;6.002;2022-10-31T04:01:48;11.20;99.90
25951;DHT22;13748;52.240;6.002;2022-10-31T04:04:16;11.20;99.90
25951;DHT22;13748;52.240;6.002;2022-10-31T04:06:45;11.40;99.90
25951;DHT22;13748;52.240;6.002;2022-10-31T04:09:14;11.10;99.90
25951;DHT22;13748;52.240;6.002;2022-10-31T04:11:46;11.10;99.90
25951;DHT22;13748;52.240;6.002;2022-10-31T04:14:15;11.10;99.90
25951;DHT22;13748;52.240;6.002;2022-10-31T04:16:43;11.00;99.90
25951;DHT22;13748;52.240;6.002;2022-10-31T04:19:11;11.10;99.90
25951;DHT22;13748;52.240;6.002;2022-10-31T04:21:38;10.90;99.90
25951;DHT22;13748;52.240;6.002;2022-10-31T04:24:05;10.80;99.90
25951;DHT22;13748;52.240;6.002;2022-10-31T04:26:32;10.80;99.90
25951;DHT22;13748;52.240;6.002;2022-10-31T04:28:59;11.10;99.90
25951;DHT22;13748;52.240;6.002;2022-10-31T04:31:26;10.80;99.90
25951;DHT22;13748;52.240;6.002;2022-10-31T04:33:52;10.70;99.90
25951;DHT22;13748;52.240;6.002;2022-10-31T04:36:19;10.80;99.90
25951;DHT22;13748;52.240;6.002;2022-10-31T04:38:46;10.70;99.90
25951;DHT22;13748;52.240;6.002;2022-10-31T04:41:13;10.70;99.90
25951;DHT22;13748;52.240;6.002;2022-10-31T04:43:40;10.70;99.90
25951;DHT22;13748;52.240;6.002;2022-10-31T04:46:06;10.60;99.90
25951;DHT22;13748;52.240;6.002;2022-10-31T04:48:33;10.70;99.90
25951;DHT22;13748;52.240;6.002;2022-10-31T04:51:01;10.60;99.90
25951;DHT22;13748;52.240;6.002;2022-10-31T04:53:29;10.60;99.90
25951;DHT22;13748;52.240;6.002;2022-10-31T04:55:58;10.50;99.90
25951;DHT22;13748;52.240;6.002;2022-10-31T04:58:25;10.50;99.90
25951;DHT22;13748;52.240;6.002;2022-10-31T05:00:53;10.40;99.90
25951;DHT22;13748;52.240;6.002;2022-10-31T05:03:20;10.30;99.90
25951;DHT22;13748;52.240;6.002;2022-10-31T05:08:14;10.40;99.90
25951;DHT22;13748;52.240;6.002;2022-10-31T05:10:41;10.70;99.90
25951;DHT22;13748;52.240;6.002;2022-10-31T05:13:08;10.40;99.90
25951;DHT22;13748;52.240;6.002;2022-10-31T05:15:37;10.30;99.90
25951;DHT22;13748;52.240;6.002;2022-10-31T05:18:04;10.30;99.90
25951;DHT22;13748;52.240;6.002;2022-10-31T05:20:31;10.30;99.90
25951;DHT22;13748;52.240;6.002;2022-10-31T05:22:59;10.30;99.90
25951;DHT22;13748;52.240;6.002;2022-10-31T05:25:28;10.30;99.90
25951;DHT22;13748;52.240;6.002;2022-10-31T05:27:55;10.30;99.90
25951;DHT22;13748;52.240;6.002;2022-10-31T05:30:26;10.20;99.90
25951;DHT22;13748;52.240;6.002;2022-10-31T05:32:53;10.20;99.90
25951;DHT22;13748;52.240;6.002;2022-10-31T05:35:26;10.30;99.90
25951;DHT22;13748;52.240;6.002;2022-10-31T05:37:53;10.30;99.90
25951;DHT22;13748;52.240;6.002;2022-10-31T05:40:21;10.20;99.90
25951;DHT22;13748;52.240;6.002;2022-10-31T05:42:51;10.20;99.90
25951;DHT22;13748;52.240;6.002;2022-10-31T05:45:18;10.20;99.90
25951;DHT22;13748;52.240;6.002;2022-10-31T05:47:59;10.50;99.90
25951;DHT22;13748;52.240;6.002;2022-10-31T05:50:30;10.10;99.90
25951;DHT22;13748;52.240;6.002;2022-10-31T05:52:59;10.20;99.90
25951;DHT22;13748;52.240;6.002;2022-10-31T05:55:27;10.10;99.90
25951;DHT22;13748;52.240;6.002;2022-10-31T05:57:54;10.20;99.90
25951;DHT22;13748;52.240;6.002;2022-10-31T06:00:22;9.80;99.90
25951;DHT22;13748;52.240;6.002;2022-10-31T06:02:49;10.00;99.90
25951;DHT22;13748;52.240;6.002;2022-10-31T06:05:23;10.00;99.90
25951;DHT22;13748;52.240;6.002;2022-10-31T06:07:50;10.00;99.90
25951;DHT22;13748;52.240;6.002;2022-10-31T06:10:17;10.00;99.90
25951;DHT22;13748;52.240;6.002;2022-10-31T06:12:45;10.00;99.90
25951;DHT22;13748;52.240;6.002;2022-10-31T06:15:13;10.00;99.90
25951;DHT22;13748;52.240;6.002;2022-10-31T06:17:39;10.00;99.90
25951;DHT22;13748;52.240;6.002;2022-10-31T06:20:07;10.00;99.90
25951;DHT22;13748;52.240;6.002;2022-10-31T06:22:33;10.00;99.90
25951;DHT22;13748;52.240;6.002;2022-10-31T06:25:00;10.00;99.90
25951;DHT22;13748;52.240;6.002;2022-10-31T06:27:27;10.00;99.90
25951;DHT22;13748;52.240;6.002;2022-10-31T06:29:54;9.90;99.90
25951;DHT22;13748;52.240;6.002;2022-10-31T06:32:21;9.90;99.90
25951;DHT22;13748;52.240;6.002;2022-10-31T06:34:47;9.90;99.90
25951;DHT22;13748;52.240;6.002;2022-10-31T06:37:15;9.90;99.90
25951;DHT22;13748;52.240;6.002;2022-10-31T06:39:42;9.80;99.90
25951;DHT22;13748;52.240;6.002;2022-10-31T06:42:08;9.80;99.90
25951;DHT22;13748;52.240;6.002;2022-10-31T06:44:35;9.80;99.90
25951;DHT22;13748;52.240;6.002;2022-10-31T06:47:02;9.80;99.90
25951;DHT22;13748;52.240;6.002;2022-10-31T06:49:29;9.70;99.90
25951;DHT22;13748;52.240;6.002;2022-10-31T06:51:55;9.70;99.90
25951;DHT22;13748;52.240;6.002;2022-10-31T06:54:22;9.70;99.90
25951;DHT22;13748;52.240;6.002;2022-10-31T06:56:49;9.70;99.90
25951;DHT22;13748;52.240;6.002;2022-10-31T06:59:16;9.70;99.90
25951;DHT22;13748;52.240;6.002;2022-10-31T07:01:43;9.70;99.90
25951;DHT22;13748;52.240;6.002;2022-10-31T07:04:10;9.70;99.90
25951;DHT22;13748;52.240;6.002;2022-10-31T07:06:38;9.70;99.90
25951;DHT22;13748;52.240;6.002;2022-10-31T07:09:05;9.70;99.90
25951;DHT22;13748;52.240;6.002;2022-10-31T07:11:32;9.70;99.90
25951;DHT22;13748;52.240;6.002;2022-10-31T07:13:59;9.80;99.90
25951;DHT22;13748;52.240;6.002;2022-10-31T07:16:26;9.80;99.90
25951;DHT22;13748;52.240;6.002;2022-10-31T07:18:53;9.80;99.90
25951;DHT22;13748;52.240;6.002;2022-10-31T07:21:19;9.90;99.90
25951;DHT22;13748;52.240;6.002;2022-10-31T07:23:49;9.90;99.90
25951;DHT22;13748;52.240;6.002;2022-10-31T07:26:16;10.00;99.90
25951;DHT22;13748;52.240;6.002;2022-10-31T07:28:43;10.00;99.90
25951;DHT22;13748;52.240;6.002;2022-10-31T07:31:09;10.00;99.90
25951;DHT22;13748;52.240;6.002;2022-10-31T07:33:36;10.10;99.90
25951;DHT22;13748;52.240;6.002;2022-10-31T07:36:03;10.10;99.90
25951;DHT22;13748;52.240;6.002;2022-10-31T07:38:30;10.20;99.90
25951;DHT22;13748;52.240;6.002;2022-10-31T07:40:57;10.20;99.90
25951;DHT22;13748;52.240;6.002;2022-10-31T07:43:24;10.20;99.90
25951;DHT22;13748;52.240;6.002;2022-10-31T07:45:53;10.30;99.90
25951;DHT22;13748;52.240;6.002;2022-10-31T07:48:21;10.30;99.90
25951;DHT22;13748;52.240;6.002;2022-10-31T07:50:48;10.40;99.90
25951;DHT22;13748;52.240;6.002;2022-10-31T07:53:14;10.40;99.90
25951;DHT22;13748;52.240;6.002;2022-10-31T07:55:42;10.50;99.90
25951;DHT22;13748;52.240;6.002;2022-10-31T07:58:12;10.60;99.90
25951;DHT22;13748;52.240;6.002;2022-10-31T08:00:44;10.70;99.90
25951;DHT22;13748;52.240;6.002;2022-10-31T08:03:13;10.90;99.90
25951;DHT22;13748;52.240;6.002;2022-10-31T08:05:41;11.00;99.90
25951;DHT22;13748;52.240;6.002;2022-10-31T08:08:08;11.20;99.90
25951;DHT22;13748;52.240;6.002;2022-10-31T08:10:36;11.30;99.90
25951;DHT22;13748;52.240;6.002;2022-10-31T08:13:05;11.50;99.90
25951;DHT22;13748;52.240;6.002;2022-10-31T08:15:33;11.60;99.90
25951;DHT22;13748;52.240;6.002;2022-10-31T08:18:03;11.70;99.90
25951;DHT22;13748;52.240;6.002;2022-10-31T08:20:30;11.80;99.90
25951;DHT22;13748;52.240;6.002;2022-10-31T08:23:02;11.90;99.90
25951;DHT22;13748;52.240;6.002;2022-10-31T08:25:31;12.00;99.90
25951;DHT22;13748;52.240;6.002;2022-10-31T08:28:05;12.20;99.90
25951;DHT22;13748;52.240;6.002;2022-10-31T08:30:33;12.30;99.90
25951;DHT22;13748;52.240;6.002;2022-10-31T08:33:13;12.30;99.90
25951;DHT22;13748;52.240;6.002;2022-10-31T08:35:41;12.50;99.90
25951;DHT22;13748;52.240;6.002;2022-10-31T08:38:10;12.50;99.90
25951;DHT22;13748;52.240;6.002;2022-10-31T08:40:38;12.70;99.90
25951;DHT22;13748;52.240;6.002;2022-10-31T08:43:15;12.70;99.90
25951;DHT22;13748;52.240;6.002;2022-10-31T08:45:44;12.80;99.90
25951;DHT22;13748;52.240;6.002;2022-10-31T08:48:12;12.80;99.90
25951;DHT22;13748;52.240;6.002;2022-10-31T08:50:40;12.90;99.90
25951;DHT22;13748;52.240;6.002;2022-10-31T08:53:18;13.00;99.90
25951;DHT22;13748;52.240;6.002;2022-10-31T08:55:46;13.00;99.90
25951;DHT22;13748;52.240;6.002;2022-10-31T08:58:17;12.90;99.90
25951;DHT22;13748;52.240;6.002;2022-10-31T09:00:46;13.10;99.90
25951;DHT22;13748;52.240;6.002;2022-10-31T09:03:32;13.20;99.90
25951;DHT22;13748;52.240;6.002;2022-10-31T09:06:00;13.30;99.90
25951;DHT22;13748;52.240;6.002;2022-10-31T09:08:29;13.30;99.90
25951;DHT22;13748;52.240;6.002;2022-10-31T09:10:57;13.40;99.90
25951;DHT22;13748;52.240;6.002;2022-10-31T09:13:24;13.40;99.90
25951;DHT22;13748;52.240;6.002;2022-10-31T09:15:55;13.50;99.90
25951;DHT22;13748;52.240;6.002;2022-10-31T09:18:23;13.50;99.90
25951;DHT22;13748;52.240;6.002;2022-10-31T09:20:50;13.50;99.90
25951;DHT22;13748;52.240;6.002;2022-10-31T09:23:21;13.60;99.90
25951;DHT22;13748;52.240;6.002;2022-10-31T09:25:51;13.60;99.90
25951;DHT22;13748;52.240;6.002;2022-10-31T09:28:20;13.60;99.90
25951;DHT22;13748;52.240;6.002;2022-10-31T09:30:49;13.70;99.90
25951;DHT22;13748;52.240;6.002;2022-10-31T09:33:17;13.70;99.90
25951;DHT22;13748;52.240;6.002;2022-10-31T09:35:44;13.80;99.90
25951;DHT22;13748;52.240;6.002;2022-10-31T09:38:13;13.90;99.90
25951;DHT22;13748;52.240;6.002;2022-10-31T09:40:47;13.90;99.90
25951;DHT22;13748;52.240;6.002;2022-10-31T09:46:34;14.00;99.90
25951;DHT22;13748;52.240;6.002;2022-10-31T09:51:59;14.10;99.90
25951;DHT22;13748;52.240;6.002;2022-10-31T09:54:47;14.20;99.90
25951;DHT22;13748;52.240;6.002;2022-10-31T09:57:27;14.20;99.90
25951;DHT22;13748;52.240;6.002;2022-10-31T09:59:55;14.20;99.90
25951;DHT22;13748;52.240;6.002;2022-10-31T10:02:49;14.30;99.90
25951;DHT22;13748;52.240;6.002;2022-10-31T10:05:36;14.30;99.90
25951;DHT22;13748;52.240;6.002;2022-10-31T10:08:10;14.40;99.90
25951;DHT22;13748;52.240;6.002;2022-10-31T10:10:59;14.50;99.90
25951;DHT22;13748;52.240;6.002;2022-10-31T10:16:23;14.60;99.90
25951;DHT22;13748;52.240;6.002;2022-10-31T10:19:09;14.70;99.90
25951;DHT22;13748;52.240;6.002;2022-10-31T10:22:15;14.80;99.90
25951;DHT22;13748;52.240;6.002;2022-10-31T10:25:12;15.00;99.90
25951;DHT22;13748;52.240;6.002;2022-10-31T10:30:41;15.30;99.90
25951;DHT22;13748;52.240;6.002;2022-10-31T10:36:01;15.60;99.90
25951;DHT22;13748;52.240;6.002;2022-10-31T10:38:58;15.70;99.90
25951;DHT22;13748;52.240;6.002;2022-10-31T10:41:31;15.80;99.90
25951;DHT22;13748;52.240;6.002;2022-10-31T10:44:00;15.90;99.90
25951;DHT22;13748;52.240;6.002;2022-10-31T10:46:43;16.00;99.90
25951;DHT22;13748;52.240;6.002;2022-10-31T10:52:30;16.20;99.90
25951;DHT22;13748;52.240;6.002;2022-10-31T10:58:06;16.40;99.90
25951;DHT22;13748;52.240;6.002;2022-10-31T11:00:47;16.50;99.90
25951;DHT22;13748;52.240;6.002;2022-10-31T11:03:15;16.60;99.90
25951;DHT22;13748;52.240;6.002;2022-10-31T11:05:53;16.60;99.90
25951;DHT22;13748;52.240;6.002;2022-10-31T11:08:25;16.60;99.90
25951;DHT22;13748;52.240;6.002;2022-10-31T11:11:08;16.70;99.90
25951;DHT22;13748;52.240;6.002;2022-10-31T11:13:37;16.70;99.90
25951;DHT22;13748;52.240;6.002;2022-10-31T11:16:10;16.80;99.90
25951;DHT22;13748;52.240;6.002;2022-10-31T11:18:41;16.70;99.90
25951;DHT22;13748;52.240;6.002;2022-10-31T11:21:24;16.70;99.90
25951;DHT22;13748;52.240;6.002;2022-10-31T11:24:03;16.80;99.90
25951;DHT22;13748;52.240;6.002;2022-10-31T11:26:30;16.80;99.90
25951;DHT22;13748;52.240;6.002;2022-10-31T11:28:59;16.80;99.90
25951;DHT22;13748;52.240;6.002;2022-10-31T11:31:27;16.90;99.90
25951;DHT22;13748;52.240;6.002;2022-10-31T11:34:07;17.00;99.90
25951;DHT22;13748;52.240;6.002;2022-10-31T11:36:43;17.10;99.90
25951;DHT22;13748;52.240;6.002;2022-10-31T11:39:21;17.10;99.90
25951;DHT22;13748;52.240;6.002;2022-10-31T11:41:49;17.20;99.90
25951;DHT22;13748;52.240;6.002;2022-10-31T11:44:28;17.30;99.90
25951;DHT22;13748;52.240;6.002;2022-10-31T11:47:00;17.30;99.90
25951;DHT22;13748;52.240;6.002;2022-10-31T11:49:35;17.50;99.90
25951;DHT22;13748;52.240;6.002;2022-10-31T11:52:12;17.50;99.90
25951;DHT22;13748;52.240;6.002;2022-10-31T12:00:02;17.70;99.90
25951;DHT22;13748;52.240;6.002;2022-10-31T12:02:30;17.80;99.90
25951;DHT22;13748;52.240;6.002;2022-10-31T12:05:03;17.80;99.90
25951;DHT22;13748;52.240;6.002;2022-10-31T12:07:32;18.00;99.90
25951;DHT22;13748;52.240;6.002;2022-10-31T12:09:59;18.00;99.90
25951;DHT22;13748;52.240;6.002;2022-10-31T12:15:32;18.10;99.90
25951;DHT22;13748;52.240;6.002;2022-10-31T12:26:45;18.00;99.90
25951;DHT22;13748;52.240;6.002;2022-10-31T12:29:32;18.00;99.90
25951;DHT22;13748;52.240;6.002;2022-10-31T12:32:20;18.00;99.90
25951;DHT22;13748;52.240;6.002;2022-10-31T12:51:04;18.40;99.90
25951;DHT22;13748;52.240;6.002;2022-10-31T12:54:07;18.40;99.90
25951;DHT22;13748;52.240;6.002;2022-10-31T13:01:51;18.50;99.90
25951;DHT22;13748;52.240;6.002;2022-10-31T13:07:34;18.50;99.90
25951;DHT22;13748;52.240;6.002;2022-10-31T13:10:26;18.60;99.90
25951;DHT22;13748;52.240;6.002;2022-10-31T13:13:00;18.60;99.90
25951;DHT22;13748;52.240;6.002;2022-10-31T13:15:45;18.60;99.90
25951;DHT22;13748;52.240;6.002;2022-10-31T13:18:25;18.70;99.90
25951;DHT22;13748;52.240;6.002;2022-10-31T13:20:55;18.70;99.90
25951;DHT22;13748;52.240;6.002;2022-10-31T13:23:34;18.70;99.90
25951;DHT22;13748;52.240;6.002;2022-10-31T13:26:43;18.60;99.90
25951;DHT22;13748;52.240;6.002;2022-10-31T13:29:36;18.60;99.90
25951;DHT22;13748;52.240;6.002;2022-10-31T13:32:06;18.50;99.90
25951;DHT22;13748;52.240;6.002;2022-10-31T13:40:14;18.30;99.90
25951;DHT22;13748;52.240;6.002;2022-10-31T13:45:32;18.20;99.90
25951;DHT22;13748;52.240;6.002;2022-10-31T13:50:42;18.10;99.90
25951;DHT22;13748;52.240;6.002;2022-10-31T13:55:46;18.00;99.90
25951;DHT22;13748;52.240;6.002;2022-10-31T13:58:23;18.00;99.90
25951;DHT22;13748;52.240;6.002;2022-10-31T14:01:18;18.00;99.90
25951;DHT22;13748;52.240;6.002;2022-10-31T14:03:55;18.00;99.90
25951;DHT22;13748;52.240;6.002;2022-10-31T14:11:48;18.00;99.90
25951;DHT22;13748;52.240;6.002;2022-10-31T14:14:17;18.00;99.90
25951;DHT22;13748;52.240;6.002;2022-10-31T14:16:46;18.00;99.90
25951;DHT22;13748;52.240;6.002;2022-10-31T14:19:21;18.00;99.90
25951;DHT22;13748;52.240;6.002;2022-10-31T14:21:50;18.00;99.90
25951;DHT22;13748;52.240;6.002;2022-10-31T14:26:58;18.00;99.90
25951;DHT22;13748;52.240;6.002;2022-10-31T14:29:29;18.00;99.90
25951;DHT22;13748;52.240;6.002;2022-10-31T14:34:56;18.00;99.90
25951;DHT22;13748;52.240;6.002;2022-10-31T14:38:15;18.10;99.90
25951;DHT22;13748;52.240;6.002;2022-10-31T14:43:47;18.00;99.90
25951;DHT22;13748;52.240;6.002;2022-10-31T14:49:39;18.00;99.90
25951;DHT22;13748;52.240;6.002;2022-10-31T14:52:13;18.00;99.90
25951;DHT22;13748;52.240;6.002;2022-10-31T14:54:44;17.90;99.90
25951;DHT22;13748;52.240;6.002;2022-10-31T14:57:33;17.90;99.90
25951;DHT22;13748;52.240;6.002;2022-10-31T15:00:07;17.90;99.90
25951;DHT22;13748;52.240;6.002;2022-10-31T15:05:35;17.90;99.90
25951;DHT22;13748;52.240;6.002;2022-10-31T15:08:14;17.80;99.90
25951;DHT22;13748;52.240;6.002;2022-10-31T15:10:52;17.80;99.90
25951;DHT22;13748;52.240;6.002;2022-10-31T15:13:21;17.70;99.90
25951;DHT22;13748;52.240;6.002;2022-10-31T15:15:50;17.70;99.90
25951;DHT22;13748;52.240;6.002;2022-10-31T15:18:25;17.70;99.90
25951;DHT22;13748;52.240;6.002;2022-10-31T15:20:54;17.60;99.90
25951;DHT22;13748;52.240;6.002;2022-10-31T15:23:27;17.60;99.90
25951;DHT22;13748;52.240;6.002;2022-10-31T15:26:03;17.60;99.90
25951;DHT22;13748;52.240;6.002;2022-10-31T15:28:31;17.50;99.90
25951;DHT22;13748;52.240;6.002;2022-10-31T15:31:00;17.50;99.90
25951;DHT22;13748;52.240;6.002;2022-10-31T15:33:38;17.50;99.90
25951;DHT22;13748;52.240;6.002;2022-10-31T15:36:22;17.40;99.90
25951;DHT22;13748;52.240;6.002;2022-10-31T15:38:57;17.40;99.90
25951;DHT22;13748;52.240;6.002;2022-10-31T15:41:37;17.40;99.90
25951;DHT22;13748;52.240;6.002;2022-10-31T15:44:14;17.30;99.90
25951;DHT22;13748;52.240;6.002;2022-10-31T15:46:42;17.30;99.90
25951;DHT22;13748;52.240;6.002;2022-10-31T15:51:55;17.20;99.90
25951;DHT22;13748;52.240;6.002;2022-10-31T15:54:28;17.20;99.90
25951;DHT22;13748;52.240;6.002;2022-10-31T15:56:55;17.30;99.90
25951;DHT22;13748;52.240;6.002;2022-10-31T15:59:25;17.20;99.90
25951;DHT22;13748;52.240;6.002;2022-10-31T16:02:01;17.10;99.90
25951;DHT22;13748;52.240;6.002;2022-10-31T16:04:29;17.10;99.90
25951;DHT22;13748;52.240;6.002;2022-10-31T16:07:13;17.00;99.90
25951;DHT22;13748;52.240;6.002;2022-10-31T16:09:52;17.00;99.90
25951;DHT22;13748;52.240;6.002;2022-10-31T16:12:20;16.90;99.90
25951;DHT22;13748;52.240;6.002;2022-10-31T16:14:52;16.90;99.90
25951;DHT22;13748;52.240;6.002;2022-10-31T16:17:21;16.90;99.90
25951;DHT22;13748;52.240;6.002;2022-10-31T16:20:00;16.90;99.90
25951;DHT22;13748;52.240;6.002;2022-10-31T16:22:35;16.80;99.90
25951;DHT22;13748;52.240;6.002;2022-10-31T16:25:14;16.80;99.90
25951;DHT22;13748;52.240;6.002;2022-10-31T16:27:49;16.80;99.90
25951;DHT22;13748;52.240;6.002;2022-10-31T16:30:58;16.70;99.90
25951;DHT22;13748;52.240;6.002;2022-10-31T16:33:34;16.70;99.90
25951;DHT22;13748;52.240;6.002;2022-10-31T16:39:02;16.60;99.90
25951;DHT22;13748;52.240;6.002;2022-10-31T16:41:29;16.60;99.90
25951;DHT22;13748;52.240;6.002;2022-10-31T16:43:56;16.50;99.90
25951;DHT22;13748;52.240;6.002;2022-10-31T16:46:25;16.40;99.90
25951;DHT22;13748;52.240;6.002;2022-10-31T16:48:54;16.50;99.90
25951;DHT22;13748;52.240;6.002;2022-10-31T16:51:21;16.50;99.90
25951;DHT22;13748;52.240;6.002;2022-10-31T16:53:51;16.40;99.90
25951;DHT22;13748;52.240;6.002;2022-10-31T16:56:32;16.40;99.90
25951;DHT22;13748;52.240;6.002;2022-10-31T16:59:02;16.40;99.90
25951;DHT22;13748;52.240;6.002;2022-10-31T17:01:31;16.30;99.90
25951;DHT22;13748;52.240;6.002;2022-10-31T17:03:58;16.40;99.90
25951;DHT22;13748;52.240;6.002;2022-10-31T17:06:24;16.40;99.90
25951;DHT22;13748;52.240;6.002;2022-10-31T17:08:53;16.40;99.90
25951;DHT22;13748;52.240;6.002;2022-10-31T17:11:23;16.40;99.90
25951;DHT22;13748;52.240;6.002;2022-10-31T17:13:52;16.30;99.90
25951;DHT22;13748;52.240;6.002;2022-10-31T17:16:19;16.40;99.90
25951;DHT22;13748;52.240;6.002;2022-10-31T17:18:46;16.40;99.90
25951;DHT22;13748;52.240;6.002;2022-10-31T17:21:20;16.30;99.90
25951;DHT22;13748;52.240;6.002;2022-10-31T17:23:49;16.30;99.90
25951;DHT22;13748;52.240;6.002;2022-10-31T17:26:17;16.30;99.90
25951;DHT22;13748;52.240;6.002;2022-10-31T17:28:43;16.30;99.90
25951;DHT22;13748;52.240;6.002;2022-10-31T17:31:20;16.20;99.90
25951;DHT22;13748;52.240;6.002;2022-10-31T17:33:47;16.10;99.90
25951;DHT22;13748;52.240;6.002;2022-10-31T17:36:14;16.10;99.90
25951;DHT22;13748;52.240;6.002;2022-10-31T17:38:40;16.10;99.90
25951;DHT22;13748;52.240;6.002;2022-10-31T17:41:07;16.00;99.90
25951;DHT22;13748;52.240;6.002;2022-10-31T17:43:37;16.00;99.90
25951;DHT22;13748;52.240;6.002;2022-10-31T17:46:04;16.00;99.90
25951;DHT22;13748;52.240;6.002;2022-10-31T17:48:33;15.90;99.90
25951;DHT22;13748;52.240;6.002;2022-10-31T17:51:01;16.00;99.90
25951;DHT22;13748;52.240;6.002;2022-10-31T17:53:29;16.00;99.90
25951;DHT22;13748;52.240;6.002;2022-10-31T17:56:04;15.90;99.90
25951;DHT22;13748;52.240;6.002;2022-10-31T17:58:31;15.90;99.90
25951;DHT22;13748;52.240;6.002;2022-10-31T18:00:58;15.90;99.90
25951;DHT22;13748;52.240;6.002;2022-10-31T18:03:26;15.80;99.90
25951;DHT22;13748;52.240;6.002;2022-10-31T18:05:58;15.80;99.90
25951;DHT22;13748;52.240;6.002;2022-10-31T18:08:27;15.70;99.90
25951;DHT22;13748;52.240;6.002;2022-10-31T18:10:54;15.70;99.90
25951;DHT22;13748;52.240;6.002;2022-10-31T18:13:22;15.70;99.90
25951;DHT22;13748;52.240;6.002;2022-10-31T18:15:48;15.70;99.90
25951;DHT22;13748;52.240;6.002;2022-10-31T18:18:15;15.70;99.90